Time;durP1;ratioP1;P1;durP2;ratioP2;P2;SDS_P1;SDS_P2;PMS_P1;PMS_P2;Temp;Humidity;BMP_temperature;BMP_pressure;BME280_temperature;BME280_humidity;BME280_pressure;Samples;Min_cycle;Max_cycle;Signal;HPM_P1;HPM_P2
2022/08/14 00:00:13;;;;;;;3.50;1.70;;;20.00;95.40;;;;;;5068438;28;20036;-75
2022/08/14 00:02:40;;;;;;;2.97;1.52;;;20.00;95.30;;;;;;5064864;28;20036;-75
2022/08/14 00:05:08;;;;;;;5.85;1.98;;;19.90;95.40;;;;;;5070156;28;20036;-74
2022/08/14 00:07:34;;;;;;;2.97;1.50;;;19.90;95.60;;;;;;5068980;28;20029;-74
2022/08/14 00:10:01;;;;;;;11.82;2.05;;;19.80;95.70;;;;;;5070063;28;20040;-74
2022/08/14 00:12:28;;;;;;;5.43;1.70;;;19.80;95.70;;;;;;5071621;28;20474;-74
2022/08/14 00:14:54;;;;;;;4.15;1.55;;;19.70;96.00;;;;;;5070508;28;20086;-74
2022/08/14 00:17:19;;;;;;;6.05;1.70;;;19.70;96.10;;;;;;5070627;28;20032;-74
2022/08/14 00:19:45;;;;;;;3.03;1.40;;;19.70;96.00;;;;;;5065720;28;20108;-74
2022/08/14 00:22:14;;;;;;;3.17;1.33;;;19.70;96.10;;;;;;5060017;28;20033;-74
2022/08/14 00:24:39;;;;;;;5.30;1.63;;;19.60;96.10;;;;;;5068126;28;20482;-75
2022/08/14 00:27:05;;;;;;;3.08;1.40;;;19.50;96.30;;;;;;5069983;28;20058;-74
2022/08/14 00:29:31;;;;;;;4.20;2.08;;;19.60;96.20;;;;;;5068900;28;20498;-75
2022/08/14 00:31:57;;;;;;;5.57;1.83;;;19.50;96.20;;;;;;5072072;28;20431;-74
2022/08/14 00:34:23;;;;;;;3.67;1.40;;;19.60;96.10;;;;;;5066295;28;20155;-74
2022/08/14 00:36:49;;;;;;;3.03;1.52;;;19.60;95.90;;;;;;5069577;28;20033;-74
2022/08/14 00:39:15;;;;;;;4.57;1.70;;;19.60;95.90;;;;;;5055110;28;20036;-75
2022/08/14 00:41:41;;;;;;;4.75;1.67;;;19.80;95.80;;;;;;5066227;28;20078;-74
2022/08/14 00:44:07;;;;;;;5.53;1.65;;;19.60;95.90;;;;;;5060910;28;20032;-74
2022/08/14 00:46:33;;;;;;;3.03;1.65;;;19.60;95.90;;;;;;5069463;28;20093;-75
2022/08/14 00:48:59;;;;;;;3.92;1.95;;;19.50;96.00;;;;;;5065842;28;20123;-75
2022/08/14 00:51:26;;;;;;;5.05;1.60;;;19.40;96.30;;;;;;5064811;28;20086;-75
2022/08/14 00:53:52;;;;;;;3.25;1.52;;;19.30;96.40;;;;;;5062443;28;20047;-75
2022/08/14 00:56:19;;;;;;;2.90;1.63;;;19.20;96.50;;;;;;5069083;28;20067;-75
2022/08/14 00:58:46;;;;;;;2.63;1.55;;;19.10;96.70;;;;;;5066780;28;20035;-75
2022/08/14 01:01:13;;;;;;;3.97;1.67;;;19.10;96.80;;;;;;5043206;28;20390;-75
2022/08/14 01:03:40;;;;;;;5.28;1.85;;;19.00;96.80;;;;;;5067345;28;20099;-75
2022/08/14 01:06:07;;;;;;;3.15;1.30;;;19.10;97.00;;;;;;5069999;28;20107;-74
2022/08/14 01:08:35;;;;;;;3.72;1.75;;;18.80;97.40;;;;;;5065866;28;20060;-75
2022/08/14 01:11:01;;;;;;;4.93;1.85;;;18.80;97.50;;;;;;5068094;28;20032;-75
2022/08/14 01:13:31;;;;;;;3.63;1.42;;;18.60;97.90;;;;;;5070152;28;20028;-75
2022/08/14 01:15:59;;;;;;;5.93;1.63;;;18.50;98.10;;;;;;5045566;28;20480;-74
2022/08/14 01:21:13;;;;;;;4.68;1.90;;;18.70;97.50;;;;;;5059850;28;20135;-75
2022/08/14 01:23:49;;;;;;;3.20;1.60;;;18.80;97.50;;;;;;5070809;28;20124;-75
2022/08/14 01:26:19;;;;;;;3.40;1.60;;;18.80;97.60;;;;;;5069649;28;20445;-75
2022/08/14 01:28:47;;;;;;;3.00;1.83;;;18.60;97.80;;;;;;5061557;28;20056;-74
2022/08/14 01:31:17;;;;;;;3.25;1.50;;;18.50;98.10;;;;;;5071624;28;20031;-75
2022/08/14 01:33:47;;;;;;;3.50;1.70;;;18.40;98.40;;;;;;5071811;28;20070;-75
2022/08/14 01:36:15;;;;;;;4.47;1.58;;;18.30;98.40;;;;;;5072224;28;20064;-75
2022/08/14 01:38:42;;;;;;;2.80;1.60;;;18.30;98.40;;;;;;5063710;28;20035;-75
2022/08/14 01:41:13;;;;;;;4.25;1.95;;;18.30;98.50;;;;;;5072713;28;20465;-75
2022/08/14 01:43:52;;;;;;;3.08;1.73;;;18.10;98.70;;;;;;5068038;28;20082;-75
2022/08/14 01:46:21;;;;;;;3.88;1.63;;;18.20;98.60;;;;;;5062364;28;20052;-75
2022/08/14 01:48:50;;;;;;;5.90;1.67;;;18.10;98.90;;;;;;5070669;28;20036;-75
2022/08/14 01:51:23;;;;;;;2.55;1.50;;;17.90;99.10;;;;;;5073830;28;20111;-75
2022/08/14 01:54:05;;;;;;;4.63;1.98;;;17.90;99.50;;;;;;5073949;28;20027;-74
2022/08/14 01:56:38;;;;;;;4.38;1.65;;;17.80;99.90;;;;;;5074410;28;20541;-74
2022/08/14 01:59:31;;;;;;;3.17;1.70;;;17.70;99.90;;;;;;5073951;28;20028;-75
2022/08/14 02:02:00;;;;;;;3.63;1.92;;;17.50;99.90;;;;;;5083887;28;20024;-75
2022/08/14 02:04:30;;;;;;;3.72;1.70;;;17.50;99.90;;;;;;5074463;28;20072;-75
2022/08/14 02:06:56;;;;;;;4.00;1.55;;;17.50;99.90;;;;;;5073788;28;20032;-75
2022/08/14 02:09:22;;;;;;;2.67;1.67;;;17.30;99.90;;;;;;5073405;28;20439;-75
2022/08/14 02:11:49;;;;;;;5.05;1.27;;;17.30;99.90;;;;;;5073420;28;20169;-75
2022/08/14 02:14:16;;;;;;;4.38;1.63;;;17.20;99.90;;;;;;5072063;28;20509;-74
2022/08/14 02:16:51;;;;;;;3.58;1.85;;;17.30;99.90;;;;;;5077916;28;20662;-75
2022/08/14 02:19:22;;;;;;;3.50;1.70;;;17.50;99.90;;;;;;5060085;28;20033;-75
2022/08/14 02:21:50;;;;;;;5.53;1.63;;;17.50;99.90;;;;;;5069922;28;20474;-75
2022/08/14 02:24:19;;;;;;;3.42;1.98;;;17.80;99.90;;;;;;5072625;28;20123;-75
2022/08/14 02:26:46;;;;;;;5.07;1.77;;;18.00;99.80;;;;;;5071188;28;20025;-75
2022/08/14 02:29:20;;;;;;;3.72;1.73;;;17.80;99.90;;;;;;5071868;28;20040;-74
2022/08/14 02:31:50;;;;;;;4.40;1.70;;;17.70;99.90;;;;;;5066233;28;20027;-74
2022/08/14 02:34:19;;;;;;;5.70;2.42;;;17.70;99.90;;;;;;5071265;28;20154;-75
2022/08/14 02:36:47;;;;;;;3.95;1.92;;;17.60;99.90;;;;;;5070072;28;20028;-74
2022/08/14 02:39:14;;;;;;;3.20;1.98;;;17.60;99.90;;;;;;5057629;28;20104;-74
2022/08/14 02:41:41;;;;;;;3.70;2.03;;;17.40;99.90;;;;;;5066816;28;20036;-75
2022/08/14 02:44:09;;;;;;;3.08;1.70;;;17.20;99.90;;;;;;5071987;28;20040;-75
2022/08/14 02:46:40;;;;;;;3.78;1.98;;;17.30;99.90;;;;;;5065536;28;20364;-75
2022/08/14 02:49:06;;;;;;;2.55;1.58;;;17.40;99.90;;;;;;5070887;28;20032;-75
2022/08/14 02:51:35;;;;;;;5.20;1.88;;;17.30;99.90;;;;;;5066024;28;20033;-74
2022/08/14 02:54:01;;;;;;;5.70;2.00;;;17.30;99.90;;;;;;5070749;28;20030;-74
2022/08/14 02:56:28;;;;;;;4.68;1.55;;;17.20;99.90;;;;;;5060657;28;20035;-76
2022/08/14 02:58:55;;;;;;;3.33;1.90;;;17.20;99.90;;;;;;5069284;28;20039;-76
2022/08/14 03:01:23;;;;;;;3.70;1.80;;;17.30;99.90;;;;;;5069849;28;20032;-75
2022/08/14 03:03:50;;;;;;;4.05;1.80;;;17.30;99.90;;;;;;5062083;28;20037;-75
2022/08/14 03:06:19;;;;;;;3.20;1.73;;;17.30;99.90;;;;;;5066111;28;20032;-75
2022/08/14 03:08:47;;;;;;;3.40;1.88;;;17.40;99.90;;;;;;5065136;28;21394;-75
2022/08/14 03:11:13;;;;;;;4.75;1.80;;;17.40;99.90;;;;;;5065137;28;20028;-75
2022/08/14 03:13:43;;;;;;;3.53;1.95;;;17.50;99.90;;;;;;5050326;28;20025;-75
2022/08/14 03:16:14;;;;;;;4.60;1.80;;;17.20;99.90;;;;;;5067997;28;20034;-75
2022/08/14 03:18:42;;;;;;;3.33;1.85;;;17.10;99.90;;;;;;5059629;28;20032;-75
2022/08/14 03:21:18;;;;;;;3.65;1.83;;;17.10;99.90;;;;;;5063241;28;20494;-75
2022/08/14 03:23:47;;;;;;;4.25;1.55;;;17.10;99.90;;;;;;5063346;28;20036;-75
2022/08/14 03:26:18;;;;;;;3.75;2.03;;;17.10;99.90;;;;;;5067033;28;20374;-75
2022/08/14 03:28:49;;;;;;;3.92;2.03;;;17.10;99.90;;;;;;5062354;28;20699;-75
2022/08/14 03:31:15;;;;;;;3.22;1.70;;;17.20;99.90;;;;;;5057920;28;20024;-75
2022/08/14 03:33:42;;;;;;;4.65;2.28;;;17.10;99.90;;;;;;5066197;28;20032;-75
2022/08/14 03:36:12;;;;;;;3.22;1.60;;;17.10;99.90;;;;;;5064673;28;20032;-75
2022/08/14 03:38:45;;;;;;;4.88;1.92;;;17.10;99.90;;;;;;5065106;28;20028;-75
2022/08/14 03:41:15;;;;;;;4.50;1.58;;;17.00;99.90;;;;;;5065592;28;20402;-75
2022/08/14 03:43:49;;;;;;;5.10;1.67;;;17.20;99.90;;;;;;5066980;28;20730;-75
2022/08/14 03:46:15;;;;;;;;;;;17.30;99.90;;;;;;5062395;28;20066;-75
2022/08/14 03:48:41;;;;;;;3.58;1.90;;;17.60;99.90;;;;;;5066913;28;19908;-76
2022/08/14 03:51:09;;;;;;;2.97;1.60;;;17.90;99.90;;;;;;5066426;28;20029;-75
2022/08/14 03:53:36;;;;;;;4.22;1.88;;;17.80;99.90;;;;;;5065821;28;20035;-75
2022/08/14 03:56:04;;;;;;;5.13;1.42;;;17.60;99.90;;;;;;5048163;28;20040;-75
2022/08/14 03:58:31;;;;;;;3.60;1.92;;;17.50;99.90;;;;;;5065529;28;20037;-75
2022/08/14 04:00:58;;;;;;;2.92;1.42;;;17.50;99.90;;;;;;5061639;28;20024;-75
2022/08/14 04:03:25;;;;;;;5.70;1.75;;;17.50;99.90;;;;;;5064615;28;20241;-75
2022/08/14 04:05:52;;;;;;;3.38;1.60;;;17.50;99.90;;;;;;5063932;28;20033;-75
2022/08/14 04:08:19;;;;;;;4.22;2.25;;;17.50;99.90;;;;;;5064068;28;20068;-75
2022/08/14 04:10:45;;;;;;;5.95;1.80;;;17.40;99.90;;;;;;5062153;28;20031;-75
2022/08/14 04:13:15;;;;;;;2.70;1.70;;;17.20;99.90;;;;;;5063795;28;20024;-75
2022/08/14 04:15:41;;;;;;;5.07;2.20;;;17.10;99.90;;;;;;5066819;28;20027;-75
2022/08/14 04:18:07;;;;;;;5.65;2.03;;;17.10;99.90;;;;;;5063464;28;20037;-75
2022/08/14 04:20:34;;;;;;;4.10;1.98;;;17.10;99.90;;;;;;5061122;28;20090;-75
2022/08/14 04:23:00;;;;;;;3.35;1.88;;;17.00;99.90;;;;;;5061254;28;20115;-75
2022/08/14 04:25:26;;;;;;;3.75;1.88;;;17.20;99.90;;;;;;5060446;28;20028;-75
2022/08/14 04:27:53;;;;;;;3.20;1.85;;;17.40;99.90;;;;;;5063685;28;20388;-75
2022/08/14 04:30:19;;;;;;;3.15;1.60;;;17.20;99.90;;;;;;5059278;28;20028;-75
2022/08/14 04:32:45;;;;;;;4.38;1.77;;;17.10;99.90;;;;;;5057539;28;20035;-75
2022/08/14 04:35:10;;;;;;;3.35;1.88;;;17.20;99.90;;;;;;5062211;28;20383;-75
2022/08/14 04:45:49;;;;;;;3.53;1.83;;;16.90;99.90;;;;;;5050303;28;20047;-76
2022/08/14 04:48:17;;;;;;;3.78;1.95;;;17.00;99.90;;;;;;5061393;28;20033;-75
2022/08/14 04:50:49;;;;;;;4.05;1.80;;;16.90;99.90;;;;;;5055435;28;20047;-75
2022/08/14 04:53:20;;;;;;;4.22;1.83;;;16.80;99.90;;;;;;5054481;28;20040;-75
2022/08/14 04:55:47;;;;;;;3.83;1.92;;;16.70;99.90;;;;;;5060390;28;20173;-75
2022/08/14 04:58:19;;;;;;;4.00;1.92;;;17.00;99.90;;;;;;5065426;28;20071;-75
2022/08/14 05:00:49;;;;;;;3.58;1.73;;;17.10;99.90;;;;;;5065262;28;20363;-75
2022/08/14 05:03:16;;;;;;;5.88;1.60;;;17.10;99.90;;;;;;5036915;28;20444;-75
2022/08/14 05:05:41;;;;;;;4.05;1.70;;;17.00;99.90;;;;;;5063094;28;20386;-75
2022/08/14 05:08:11;;;;;;;4.28;1.70;;;16.80;99.90;;;;;;5062502;28;20028;-75
2022/08/14 05:10:42;;;;;;;2.65;1.50;;;16.90;99.90;;;;;;5064068;28;20071;-75
2022/08/14 05:13:09;;;;;;;4.00;2.08;;;16.90;99.90;;;;;;5066532;28;20037;-75
2022/08/14 05:15:37;;;;;;;4.38;2.40;;;16.90;99.90;;;;;;5062467;28;20072;-75
2022/08/14 05:18:23;;;;;;;3.28;1.67;;;17.00;99.90;;;;;;5064318;28;20670;-74
2022/08/14 05:20:51;;;;;;;4.05;1.77;;;17.30;99.90;;;;;;5064496;28;20028;-74
2022/08/14 05:23:19;;;;;;;3.00;1.60;;;17.40;99.90;;;;;;5067034;28;20032;-74
2022/08/14 05:25:46;;;;;;;4.25;2.28;;;17.50;99.90;;;;;;5063523;28;20520;-74
2022/08/14 05:28:17;;;;;;;5.22;1.95;;;17.40;99.90;;;;;;5070113;28;20032;-76
2022/08/14 05:30:47;;;;;;;4.97;1.98;;;17.60;99.90;;;;;;5065937;28;20028;-74
2022/08/14 05:33:15;;;;;;;3.92;1.95;;;17.50;99.90;;;;;;5065606;28;20026;-75
2022/08/14 05:35:43;;;;;;;3.72;1.83;;;17.50;99.90;;;;;;5063882;28;20629;-75
2022/08/14 05:38:12;;;;;;;3.45;2.20;;;17.50;99.90;;;;;;5062915;28;20024;-76
2022/08/14 05:40:39;;;;;;;3.55;1.60;;;17.90;99.90;;;;;;5064902;28;20033;-76
2022/08/14 05:43:06;;;;;;;2.90;1.63;;;17.90;99.90;;;;;;5075110;28;20742;-76
2022/08/14 05:45:33;;;;;;;4.57;1.70;;;18.20;99.70;;;;;;5054471;28;20044;-76
2022/08/14 05:47:59;;;;;;;2.35;1.40;;;18.30;99.30;;;;;;5067152;28;20024;-75
2022/08/14 05:50:25;;;;;;;4.78;1.90;;;18.30;99.70;;;;;;5067725;28;20089;-76
2022/08/14 05:52:50;;;;;;;5.93;2.22;;;18.40;99.50;;;;;;5068014;28;21515;-75
2022/08/14 05:55:16;;;;;;;6.90;1.88;;;18.40;99.60;;;;;;5065932;28;20029;-75
2022/08/14 05:58:03;;;;;;;3.05;1.67;;;18.20;99.90;;;;;;5068330;28;20027;-75
2022/08/14 06:00:32;;;;;;;2.90;1.48;;;18.20;99.90;;;;;;5059108;28;20044;-77
2022/08/14 06:02:59;;;;;;;5.22;2.13;;;18.20;99.90;;;;;;5068262;28;20067;-77
2022/08/14 06:05:25;;;;;;;4.05;1.90;;;18.30;99.90;;;;;;5061041;28;20031;-77
2022/08/14 06:07:51;;;;;;;3.17;1.65;;;18.30;99.90;;;;;;5073484;28;20039;-75
2022/08/14 06:10:17;;;;;;;2.95;1.58;;;18.40;99.90;;;;;;5076389;28;20074;-75
2022/08/14 06:12:43;;;;;;;4.78;1.73;;;18.50;99.90;;;;;;5064322;28;20029;-75
2022/08/14 06:15:09;;;;;;;4.53;1.65;;;18.50;99.90;;;;;;5064108;28;20043;-77
2022/08/14 06:17:50;;;;;;;5.00;1.50;;;18.50;99.90;;;;;;5063853;28;20040;-77
2022/08/14 06:20:17;;;;;;;8.13;2.00;;;18.60;99.90;;;;;;5067919;28;20029;-76
2022/08/14 06:22:43;;;;;;;4.05;2.35;;;18.70;99.90;;;;;;5066874;28;20029;-76
2022/08/14 06:25:11;;;;;;;3.05;1.80;;;18.80;98.90;;;;;;5066862;28;20036;-76
2022/08/14 06:27:38;;;;;;;5.05;1.83;;;18.80;99.70;;;;;;5065988;28;20035;-76
2022/08/14 06:30:09;;;;;;;4.68;1.90;;;18.80;99.00;;;;;;5044162;28;20352;-76
2022/08/14 06:32:36;;;;;;;4.57;1.80;;;19.00;98.70;;;;;;5068316;28;20028;-76
2022/08/14 06:35:06;;;;;;;4.00;1.80;;;18.90;98.60;;;;;;5055590;28;20028;-76
2022/08/14 06:37:48;;;;;;;4.25;1.95;;;19.10;98.60;;;;;;5067679;28;20111;-76
2022/08/14 06:40:18;;;;;;;4.53;1.45;;;19.30;98.20;;;;;;5058397;28;20028;-76
2022/08/14 06:42:44;;;;;;;3.97;2.00;;;19.60;98.00;;;;;;5054431;28;20041;-76
2022/08/14 06:45:10;;;;;;;4.40;1.95;;;19.80;97.50;;;;;;5056904;28;20043;-75
2022/08/14 06:47:37;;;;;;;4.03;1.92;;;20.00;97.30;;;;;;5056620;28;20037;-76
2022/08/14 06:50:09;;;;;;;3.97;1.90;;;20.10;97.60;;;;;;5057814;28;20031;-75
2022/08/14 06:52:36;;;;;;;3.95;1.90;;;20.20;97.30;;;;;;5051944;28;20058;-75
2022/08/14 06:55:06;;;;;;;4.15;1.80;;;20.30;96.40;;;;;;5055979;28;20021;-76
2022/08/14 06:57:37;;;;;;;3.10;1.83;;;20.40;96.80;;;;;;5058725;28;20032;-75
2022/08/14 07:00:06;;;;;;;3.65;2.03;;;20.40;96.70;;;;;;5065853;28;20032;-75
2022/08/14 07:08:00;;;;;;;2.83;1.80;;;20.60;96.70;;;;;;5064653;28;20044;-75
2022/08/14 07:10:26;;;;;;;4.82;2.15;;;21.50;96.10;;;;;;5063332;28;20036;-76
2022/08/14 07:12:53;;;;;;;6.32;2.20;;;22.50;94.70;;;;;;5069567;28;20479;-77
2022/08/14 07:15:18;;;;;;;3.80;1.63;;;23.40;93.00;;;;;;5067237;28;20029;-77
2022/08/14 07:17:48;;;;;;;3.35;2.05;;;24.40;91.70;;;;;;5068381;28;20028;-76
2022/08/14 07:20:16;;;;;;;2.97;1.77;;;25.30;90.20;;;;;;5065364;28;20554;-76
2022/08/14 07:22:42;;;;;;;4.43;2.08;;;25.90;89.90;;;;;;5063744;28;20028;-75
2022/08/14 07:25:08;;;;;;;5.43;2.75;;;25.40;89.80;;;;;;5067600;28;20025;-77
2022/08/14 07:27:34;;;;;;;4.32;1.70;;;26.10;88.40;;;;;;5065573;28;20033;-78
2022/08/14 07:30:03;;;;;;;3.30;1.80;;;26.10;86.80;;;;;;5062054;28;20048;-76
2022/08/14 07:32:28;;;;;;;4.80;2.45;;;26.60;86.20;;;;;;5052928;28;20492;-80
2022/08/14 07:34:54;;;;;;;3.42;1.65;;;26.40;85.30;;;;;;5049714;28;20028;-78
2022/08/14 07:37:19;;;;;;;3.05;1.80;;;26.50;85.50;;;;;;5065004;28;20058;-79
2022/08/14 07:39:45;;;;;;;3.28;1.70;;;26.50;85.40;;;;;;5072091;28;20024;-77
2022/08/14 07:42:11;;;;;;;4.50;1.83;;;26.00;85.70;;;;;;5063130;28;20039;-78
2022/08/14 07:44:37;;;;;;;5.38;2.17;;;26.80;85.50;;;;;;5068176;28;20044;-78
2022/08/14 07:47:03;;;;;;;2.97;1.80;;;26.70;84.90;;;;;;5068396;28;20032;-79
2022/08/14 07:49:31;;;;;;;4.82;2.20;;;26.80;84.30;;;;;;5067767;28;20608;-76
2022/08/14 07:51:58;;;;;;;3.45;1.98;;;24.80;88.40;;;;;;5066304;28;20024;-78
2022/08/14 07:54:24;;;;;;;3.88;1.73;;;22.80;90.80;;;;;;5069599;28;20410;-77
2022/08/14 07:56:50;;;;;;;3.75;1.58;;;22.20;91.80;;;;;;5057086;28;20489;-76
2022/08/14 07:59:16;;;;;;;6.03;1.90;;;21.80;93.10;;;;;;5059078;28;20021;-76
2022/08/14 08:01:43;;;;;;;5.97;2.20;;;21.40;93.00;;;;;;5050672;28;20103;-75
2022/08/14 08:04:10;;;;;;;3.88;2.17;;;21.20;93.70;;;;;;5063140;28;20048;-76
2022/08/14 08:06:37;;;;;;;3.88;2.10;;;21.40;93.80;;;;;;5049901;28;20044;-76
2022/08/14 08:09:03;;;;;;;4.40;1.88;;;21.40;93.80;;;;;;5059921;28;20494;-76
2022/08/14 08:11:33;;;;;;;4.22;2.20;;;21.50;94.40;;;;;;5057728;28;20036;-78
2022/08/14 08:14:01;;;;;;;4.05;2.10;;;21.50;94.40;;;;;;5058093;28;20028;-75
2022/08/14 08:16:28;;;;;;;3.47;2.08;;;21.50;94.40;;;;;;5048977;28;20112;-76
2022/08/14 08:18:53;;;;;;;3.35;1.73;;;21.60;94.30;;;;;;5054461;28;20426;-76
2022/08/14 08:21:21;;;;;;;3.00;1.73;;;21.60;93.90;;;;;;5063852;28;20068;-75
2022/08/14 08:23:46;;;;;;;3.70;1.77;;;21.70;94.20;;;;;;5048769;28;20041;-73
2022/08/14 08:26:12;;;;;;;3.40;2.13;;;21.60;93.80;;;;;;5051408;28;20047;-73
2022/08/14 08:28:39;;;;;;;6.60;2.25;;;21.70;94.30;;;;;;5064383;28;20133;-77
2022/08/14 08:31:05;;;;;;;6.18;2.08;;;22.80;92.90;;;;;;5066751;28;20025;-77
2022/08/14 08:33:34;;;;;;;3.72;2.13;;;25.00;90.50;;;;;;5066441;28;20462;-77
2022/08/14 08:36:04;;;;;;;5.78;2.05;;;25.80;89.60;;;;;;5066909;28;20370;-77
2022/08/14 08:38:30;;;;;;;3.58;1.70;;;26.00;89.00;;;;;;5067305;28;20025;-77
2022/08/14 08:40:58;;;;;;;6.53;2.13;;;26.10;88.70;;;;;;5069089;28;20031;-77
2022/08/14 08:43:31;;;;;;;3.53;2.08;;;26.60;86.90;;;;;;5069233;28;20068;-78
2022/08/14 08:46:01;;;;;;;4.33;2.10;;;26.80;85.80;;;;;;5069061;28;20111;-78
2022/08/14 08:48:29;;;;;;;2.97;1.98;;;27.30;86.50;;;;;;5069743;28;20563;-77
2022/08/14 08:50:57;;;;;;;3.50;2.00;;;27.10;86.30;;;;;;5051697;28;20447;-78
2022/08/14 08:53:32;;;;;;;3.85;2.17;;;27.20;87.40;;;;;;5069098;28;20032;-77
2022/08/14 08:55:59;;;;;;;3.17;2.08;;;27.10;87.40;;;;;;5069450;28;20059;-78
2022/08/14 08:58:25;;;;;;;4.45;2.05;;;26.00;86.20;;;;;;5069557;28;20117;-77
2022/08/14 09:00:54;;;;;;;4.30;2.10;;;25.40;90.40;;;;;;5069773;28;20622;-77
2022/08/14 09:03:23;;;;;;;6.18;2.13;;;24.90;90.10;;;;;;5070082;28;20029;-78
2022/08/14 09:05:51;;;;;;;4.20;1.77;;;24.70;91.10;;;;;;5069823;28;20032;-78
2022/08/14 09:08:24;;;;;;;3.72;2.22;;;23.90;89.80;;;;;;5069565;28;20100;-77
2022/08/14 09:10:51;;;;;;;5.20;1.73;;;23.90;90.70;;;;;;5069382;28;20478;-78
2022/08/14 09:13:18;;;;;;;3.78;1.90;;;23.80;90.90;;;;;;5069987;28;20601;-78
2022/08/14 09:15:46;;;;;;;3.33;1.77;;;23.80;90.80;;;;;;5069383;28;20039;-77
2022/08/14 09:18:13;;;;;;;4.57;1.90;;;24.10;91.50;;;;;;5069633;28;20028;-78
2022/08/14 09:20:41;;;;;;;3.15;1.98;;;24.00;90.80;;;;;;5069536;28;20076;-77
2022/08/14 09:23:11;;;;;;;3.22;1.75;;;24.40;90.70;;;;;;5069331;28;20044;-78
2022/08/14 09:25:38;;;;;;;2.90;1.63;;;24.30;90.30;;;;;;5069005;28;20035;-78
2022/08/14 09:28:05;;;;;;;3.30;1.83;;;24.60;90.20;;;;;;5068271;28;20033;-77
2022/08/14 09:30:37;;;;;;;5.00;2.25;;;24.50;89.60;;;;;;5068445;28;20065;-78
2022/08/14 09:33:03;;;;;;;3.45;1.92;;;24.60;90.30;;;;;;5068378;28;20478;-78
2022/08/14 09:35:40;;;;;;;3.20;2.10;;;24.30;90.00;;;;;;5067716;28;20032;-78
2022/08/14 09:38:08;;;;;;;3.78;2.00;;;24.60;89.90;;;;;;5068433;28;20506;-78
2022/08/14 09:41:11;;;;;;;6.00;2.08;;;24.90;90.10;;;;;;5071316;28;20508;-78
2022/08/14 09:43:53;;;;;;;4.38;2.17;;;24.70;90.80;;;;;;5071075;28;20078;-78
2022/08/14 09:46:18;;;;;;;3.83;1.80;;;24.80;89.20;;;;;;5070539;28;20024;-78
2022/08/14 09:48:45;;;;;;;4.07;2.25;;;25.00;90.20;;;;;;5070480;28;20036;-78
2022/08/14 09:51:23;;;;;;;5.45;2.35;;;25.10;90.40;;;;;;5070905;28;20066;-78
2022/08/14 09:54:09;;;;;;;4.30;2.22;;;25.00;90.10;;;;;;5071676;28;20017;-78
2022/08/14 09:56:51;;;;;;;3.38;1.92;;;25.00;90.10;;;;;;5071863;28;20025;-78
2022/08/14 09:59:21;;;;;;;3.60;2.13;;;25.20;89.50;;;;;;5071925;28;20659;-78
2022/08/14 10:01:48;;;;;;;4.00;2.45;;;25.30;88.50;;;;;;5071689;28;20036;-78
2022/08/14 10:04:25;;;;;;;3.30;2.03;;;25.30;90.20;;;;;;5072563;28;20382;-78
2022/08/14 10:06:51;;;;;;;2.80;1.73;;;25.20;87.60;;;;;;5072257;28;20028;-78
2022/08/14 10:09:17;;;;;;;5.78;2.08;;;25.30;87.70;;;;;;5071644;28;20056;-78
2022/08/14 10:11:55;;;;;;;3.42;1.92;;;25.30;87.40;;;;;;5071793;28;20036;-78
2022/08/14 10:14:24;;;;;;;3.72;2.08;;;25.70;88.80;;;;;;5072800;28;20052;-77
2022/08/14 10:16:53;;;;;;;6.15;2.75;;;25.80;90.20;;;;;;5072747;28;20025;-77
2022/08/14 10:19:24;;;;;;;7.90;1.85;;;25.90;87.40;;;;;;5072622;28;20024;-78
2022/08/14 10:22:04;;;;;;;4.03;1.83;;;26.00;89.20;;;;;;5053940;28;20458;-77
2022/08/14 10:24:46;;;;;;;18.70;5.22;;;26.00;88.10;;;;;;5072406;28;20086;-77
2022/08/14 10:27:18;;;;;;;10.57;3.40;;;26.30;89.10;;;;;;5071862;28;20520;-77
2022/08/14 10:29:52;;;;;;;4.55;2.03;;;26.60;88.20;;;;;;5072114;28;20112;-77
2022/08/14 10:32:20;;;;;;;5.10;1.83;;;26.20;85.40;;;;;;5072002;28;20070;-78
2022/08/14 10:34:46;;;;;;;3.03;1.63;;;25.90;87.10;;;;;;5053775;28;20055;-76
2022/08/14 10:37:15;;;;;;;3.33;1.63;;;26.40;89.40;;;;;;5071195;28;20056;-77
2022/08/14 10:39:43;;;;;;;3.55;1.73;;;26.40;86.00;;;;;;5070559;28;20527;-78
2022/08/14 10:42:13;;;;;;;5.22;2.20;;;26.80;90.20;;;;;;5070806;28;20032;-78
2022/08/14 10:44:44;;;;;;;3.50;1.85;;;26.70;87.10;;;;;;5071090;28;20446;-78
2022/08/14 10:47:12;;;;;;;4.90;1.80;;;26.70;89.50;;;;;;5071244;28;20031;-78
2022/08/14 10:49:48;;;;;;;3.35;1.80;;;26.90;86.70;;;;;;5071045;28;20028;-78
2022/08/14 10:52:20;;;;;;;4.65;1.60;;;26.80;87.40;;;;;;5071396;28;20021;-78
2022/08/14 10:54:47;;;;;;;3.40;1.60;;;26.70;87.00;;;;;;5071585;28;20056;-78
2022/08/14 10:57:12;;;;;;;3.22;2.05;;;26.90;88.10;;;;;;5070943;28;20262;-78
2022/08/14 10:59:44;;;;;;;3.35;2.10;;;26.70;85.00;;;;;;5071494;28;20032;-78
2022/08/14 11:02:36;;;;;;;3.97;1.98;;;26.80;88.50;;;;;;5063160;28;20028;-78
2022/08/14 11:05:17;;;;;;;4.38;2.05;;;26.90;86.20;;;;;;5071336;28;20098;-78
2022/08/14 11:07:54;;;;;;;5.55;2.10;;;26.70;86.10;;;;;;5071029;28;20051;-78
2022/08/14 11:10:26;;;;;;;7.05;1.92;;;26.90;86.80;;;;;;5070553;28;20159;-78
2022/08/14 11:12:56;;;;;;;4.97;2.25;;;27.10;87.10;;;;;;5070810;28;20133;-78
2022/08/14 11:15:26;;;;;;;5.80;1.80;;;27.20;87.40;;;;;;5070290;28;20052;-78
2022/08/14 11:17:53;;;;;;;7.18;2.83;;;27.40;87.50;;;;;;5070000;28;20028;-78
2022/08/14 11:20:26;;;;;;;8.55;2.70;;;27.50;86.80;;;;;;5070210;28;20043;-78
2022/08/14 11:22:57;;;;;;;3.58;1.75;;;27.60;89.50;;;;;;5070865;28;20029;-78
2022/08/14 11:25:28;;;;;;;8.75;3.40;;;28.10;88.20;;;;;;5071341;28;20067;-78
2022/08/14 11:27:55;;;;;;;11.73;3.03;;;27.90;90.00;;;;;;5070285;28;20024;-78
2022/08/14 11:30:24;;;;;;;8.73;3.97;;;28.10;88.30;;;;;;5070431;28;20120;-78
2022/08/14 11:32:51;;;;;;;5.45;1.77;;;28.30;87.50;;;;;;5070497;28;20463;-78
2022/08/14 11:35:22;;;;;;;18.40;12.80;;;28.60;83.40;;;;;;5069927;28;20060;-78
2022/08/14 11:38:00;;;;;;;4.18;2.03;;;28.70;82.90;;;;;;5070442;28;20424;-78
2022/08/14 11:40:28;;;;;;;6.50;3.00;;;28.70;83.40;;;;;;5069747;28;20077;-78
2022/08/14 11:42:54;;;;;;;2.60;1.52;;;29.00;83.90;;;;;;5069828;28;20127;-78
2022/08/14 11:45:23;;;;;;;3.30;1.90;;;29.00;82.70;;;;;;5070479;28;20054;-78
2022/08/14 11:47:51;;;;;;;4.25;1.80;;;29.40;84.70;;;;;;5070365;28;20512;-78
2022/08/14 11:50:26;;;;;;;3.28;1.90;;;29.30;82.00;;;;;;5070480;28;20028;-78
2022/08/14 11:52:54;;;;;;;2.83;1.63;;;29.20;81.70;;;;;;5070073;28;20020;-78
2022/08/14 11:55:20;;;;;;;4.72;1.70;;;29.10;81.80;;;;;;5070297;28;20028;-78
2022/08/14 11:57:46;;;;;;;3.00;1.50;;;29.10;80.90;;;;;;5070322;28;20032;-78
2022/08/14 12:00:15;;;;;;;3.05;1.33;;;29.30;83.30;;;;;;5070484;28;20052;-78
2022/08/14 12:02:55;;;;;;;2.80;1.48;;;29.50;81.20;;;;;;5069522;28;20031;-78
2022/08/14 12:05:38;;;;;;;2.65;1.60;;;29.70;84.40;;;;;;5069814;28;20655;-78
2022/08/14 12:08:06;;;;;;;3.10;1.80;;;29.90;82.60;;;;;;5070089;28;20071;-79
2022/08/14 12:10:33;;;;;;;2.70;1.50;;;29.70;81.10;;;;;;5069635;28;20032;-78
2022/08/14 12:13:10;;;;;;;2.90;1.42;;;29.50;80.20;;;;;;5069594;28;20036;-78
2022/08/14 12:15:36;;;;;;;3.55;1.65;;;29.40;80.60;;;;;;5069321;28;20027;-78
2022/08/14 12:18:02;;;;;;;3.38;1.73;;;29.20;80.40;;;;;;5070087;28;20093;-78
2022/08/14 12:20:30;;;;;;;3.65;1.88;;;29.30;79.90;;;;;;5069891;28;20670;-78
2022/08/14 12:22:56;;;;;;;2.50;1.38;;;29.50;81.20;;;;;;5069783;28;20116;-78
2022/08/14 12:25:24;;;;;;;4.10;1.70;;;29.50;80.60;;;;;;5070229;28;20060;-79
2022/08/14 12:27:54;;;;;;;2.72;1.50;;;29.60;80.60;;;;;;5070070;28;20087;-78
2022/08/14 12:30:31;;;;;;;3.67;1.70;;;29.50;81.30;;;;;;5070009;28;20486;-78
2022/08/14 12:32:58;;;;;;;6.80;1.60;;;29.60;81.20;;;;;;5069943;28;20073;-78
2022/08/14 12:35:38;;;;;;;3.00;1.65;;;29.70;81.50;;;;;;5069419;28;20032;-78
2022/08/14 12:38:04;;;;;;;4.63;1.75;;;29.70;80.60;;;;;;5069813;28;20036;-79
2022/08/14 12:40:30;;;;;;;2.65;1.52;;;29.60;80.20;;;;;;5069300;28;20374;-78
2022/08/14 12:43:02;;;;;;;4.65;1.40;;;29.70;81.10;;;;;;5069486;28;20044;-78
2022/08/14 12:45:34;;;;;;;2.55;1.42;;;29.80;81.80;;;;;;5069512;28;20052;-78
2022/08/14 12:48:04;;;;;;;5.13;2.33;;;29.60;80.90;;;;;;5069196;28;20035;-78
2022/08/14 12:50:38;;;;;;;3.25;1.60;;;29.60;80.70;;;;;;5069380;28;20491;-78
2022/08/14 12:53:06;;;;;;;5.22;1.45;;;29.60;82.40;;;;;;5068873;28;20037;-78
2022/08/14 12:55:34;;;;;;;2.20;1.30;;;29.60;80.40;;;;;;5069007;28;20029;-78
2022/08/14 12:58:04;;;;;;;2.88;1.73;;;29.60;81.60;;;;;;5068671;28;20024;-78
2022/08/14 13:00:31;;;;;;;5.50;1.60;;;29.50;80.30;;;;;;5068707;28;20105;-78
2022/08/14 13:02:57;;;;;;;3.22;1.73;;;29.30;79.60;;;;;;5068428;28;20119;-78
2022/08/14 13:05:29;;;;;;;4.25;1.40;;;29.30;79.90;;;;;;5068446;28;20185;-78
2022/08/14 13:07:56;;;;;;;4.45;1.40;;;29.30;80.40;;;;;;5068513;28;20047;-78
2022/08/14 13:10:22;;;;;;;3.35;1.35;;;29.40;80.80;;;;;;5068325;28;20040;-79
2022/08/14 13:12:56;;;;;;;2.55;1.48;;;29.20;79.70;;;;;;5070490;28;20036;-79